sensor_id;sensor_type;location;lat;lon;timestamp;pressure;altitude;pressure_sealevel;temperature;humidity
15634;BME280;14654;48.898;8.308;2022-12-08T00:00:35;100010.53;;;-0.27;100.00
15634;BME280;14654;48.898;8.308;2022-12-08T00:03:01;100017.38;;;-0.25;100.00
15634;BME280;14654;48.898;8.308;2022-12-08T00:05:26;100014.94;;;-0.22;100.00
15634;BME280;14654;48.898;8.308;2022-12-08T00:08:10;100008.25;;;-0.18;100.00
15634;BME280;14654;48.898;8.308;2022-12-08T00:10:54;100011.75;;;-0.14;100.00
15634;BME280;14654;48.898;8.308;2022-12-08T00:13:19;100010.09;;;-0.14;100.00
15634;BME280;14654;48.898;8.308;2022-12-08T00:15:45;100011.00;;;-0.12;100.00
15634;BME280;14654;48.898;8.308;2022-12-08T00:18:10;99997.50;;;-0.09;100.00
15634;BME280;14654;48.898;8.308;2022-12-08T00:20:35;99999.22;;;-0.08;100.00
15634;BME280;14654;48.898;8.308;2022-12-08T00:23:01;99992.50;;;-0.06;100.00
15634;BME280;14654;48.898;8.308;2022-12-08T00:25:28;100000.25;;;-0.03;100.00
15634;BME280;14654;48.898;8.308;2022-12-08T00:27:53;100002.03;;;0.01;100.00
15634;BME280;14654;48.898;8.308;2022-12-08T00:30:18;99987.78;;;0.06;100.00
15634;BME280;14654;48.898;8.308;2022-12-08T00:32:44;99984.50;;;0.10;100.00
15634;BME280;14654;48.898;8.308;2022-12-08T00:35:09;99981.25;;;0.14;100.00
15634;BME280;14654;48.898;8.308;2022-12-08T00:37:34;99979.50;;;0.13;100.00
15634;BME280;14654;48.898;8.308;2022-12-08T00:40:00;99982.00;;;0.12;100.00
15634;BME280;14654;48.898;8.308;2022-12-08T00:42:25;99978.47;;;0.07;100.00
15634;BME280;14654;48.898;8.308;2022-12-08T00:44:50;99975.03;;;0.05;100.00
15634;BME280;14654;48.898;8.308;2022-12-08T00:47:16;99978.31;;;0.02;100.00
15634;BME280;14654;48.898;8.308;2022-12-08T00:49:41;99973.09;;;-0.03;100.00
15634;BME280;14654;48.898;8.308;2022-12-08T00:52:06;99972.97;;;-0.07;100.00
15634;BME280;14654;48.898;8.308;2022-12-08T00:54:32;99956.78;;;-0.11;100.00
15634;BME280;14654;48.898;8.308;2022-12-08T00:56:57;99960.06;;;-0.13;100.00
15634;BME280;14654;48.898;8.308;2022-12-08T00:59:22;99952.38;;;-0.17;100.00
15634;BME280;14654;48.898;8.308;2022-12-08T01:01:48;99950.56;;;-0.19;100.00
15634;BME280;14654;48.898;8.308;2022-12-08T01:04:15;99947.94;;;-0.22;100.00
15634;BME280;14654;48.898;8.308;2022-12-08T01:06:41;99947.00;;;-0.26;100.00
15634;BME280;14654;48.898;8.308;2022-12-08T01:09:07;99950.31;;;-0.28;100.00
15634;BME280;14654;48.898;8.308;2022-12-08T01:11:33;99946.88;;;-0.31;100.00
15634;BME280;14654;48.898;8.308;2022-12-08T01:13:59;99945.94;;;-0.33;100.00
15634;BME280;14654;48.898;8.308;2022-12-08T01:16:27;99944.94;;;-0.38;100.00
15634;BME280;14654;48.898;8.308;2022-12-08T01:18:53;99943.16;;;-0.42;100.00
15634;BME280;14654;48.898;8.308;2022-12-08T01:21:19;99943.88;;;-0.46;100.00
15634;BME280;14654;48.898;8.308;2022-12-08T01:23:45;99945.50;;;-0.48;100.00
15634;BME280;14654;48.898;8.308;2022-12-08T01:26:13;99953.84;;;-0.52;100.00
15634;BME280;14654;48.898;8.308;2022-12-08T01:28:40;99953.75;;;-0.55;100.00
15634;BME280;14654;48.898;8.308;2022-12-08T01:31:14;99945.16;;;-0.59;100.00
15634;BME280;14654;48.898;8.308;2022-12-08T01:33:40;99945.09;;;-0.62;100.00
15634;BME280;14654;48.898;8.308;2022-12-08T01:36:06;99953.53;;;-0.63;100.00
15634;BME280;14654;48.898;8.308;2022-12-08T01:38:31;99952.63;;;-0.65;100.00
15634;BME280;14654;48.898;8.308;2022-12-08T01:40:57;99955.09;;;-0.67;100.00
15634;BME280;14654;48.898;8.308;2022-12-08T01:43:23;99954.25;;;-0.67;100.00
15634;BME280;14654;48.898;8.308;2022-12-08T01:45:49;99952.50;;;-0.68;100.00
15634;BME280;14654;48.898;8.308;2022-12-08T01:48:26;99953.41;;;-0.66;100.00
15634;BME280;14654;48.898;8.308;2022-12-08T01:50:53;99954.19;;;-0.69;100.00
15634;BME280;14654;48.898;8.308;2022-12-08T01:53:25;99953.31;;;-0.69;100.00
15634;BME280;14654;48.898;8.308;2022-12-08T01:55:58;99950.69;;;-0.72;100.00
15634;BME280;14654;48.898;8.308;2022-12-08T01:58:30;99946.47;;;-0.72;100.00
15634;BME280;14654;48.898;8.308;2022-12-08T02:00:57;99941.50;;;-0.69;100.00
15634;BME280;14654;48.898;8.308;2022-12-08T02:06:13;99944.91;;;-0.67;100.00
15634;BME280;14654;48.898;8.308;2022-12-08T02:08:40;99938.19;;;-0.66;100.00
15634;BME280;14654;48.898;8.308;2022-12-08T02:11:10;99935.63;;;-0.66;100.00
15634;BME280;14654;48.898;8.308;2022-12-08T02:13:36;99929.59;;;-0.70;100.00
15634;BME280;14654;48.898;8.308;2022-12-08T02:22:19;99927.66;;;-0.77;100.00
15634;BME280;14654;48.898;8.308;2022-12-08T02:24:55;99922.50;;;-0.80;100.00
15634;BME280;14654;48.898;8.308;2022-12-08T02:35:55;99908.84;;;-0.84;100.00
15634;BME280;14654;48.898;8.308;2022-12-08T02:41:19;99908.94;;;-0.81;100.00
15634;BME280;14654;48.898;8.308;2022-12-08T02:44:01;99903.06;;;-0.78;100.00
15634;BME280;14654;48.898;8.308;2022-12-08T02:46:46;99899.81;;;-0.74;100.00
15634;BME280;14654;48.898;8.308;2022-12-08T02:49:12;99903.44;;;-0.66;100.00
15634;BME280;14654;48.898;8.308;2022-12-08T02:51:39;99896.22;;;-0.53;100.00
15634;BME280;14654;48.898;8.308;2022-12-08T02:54:05;99891.41;;;-0.42;100.00
15634;BME280;14654;48.898;8.308;2022-12-08T03:02:16;99886.72;;;0.02;100.00
15634;BME280;14654;48.898;8.308;2022-12-08T03:04:53;99878.53;;;0.12;100.00
15634;BME280;14654;48.898;8.308;2022-12-08T03:10:16;99860.34;;;0.30;100.00
15634;BME280;14654;48.898;8.308;2022-12-08T03:12:47;99866.41;;;0.36;100.00
15634;BME280;14654;48.898;8.308;2022-12-08T03:15:17;99858.91;;;0.40;100.00
15634;BME280;14654;48.898;8.308;2022-12-08T03:17:51;99859.03;;;0.47;100.00
15634;BME280;14654;48.898;8.308;2022-12-08T03:20:21;99858.25;;;0.49;100.00
15634;BME280;14654;48.898;8.308;2022-12-08T03:22:49;99861.72;;;0.51;100.00
15634;BME280;14654;48.898;8.308;2022-12-08T03:25:21;99854.06;;;0.51;100.00
15634;BME280;14654;48.898;8.308;2022-12-08T03:27:47;99848.09;;;0.51;100.00
15634;BME280;14654;48.898;8.308;2022-12-08T03:30:13;99850.66;;;0.51;100.00
15634;BME280;14654;48.898;8.308;2022-12-08T03:35:25;99848.19;;;0.54;100.00
15634;BME280;14654;48.898;8.308;2022-12-08T03:37:50;99845.72;;;0.57;100.00
15634;BME280;14654;48.898;8.308;2022-12-08T03:40:17;99845.81;;;0.60;100.00
15634;BME280;14654;48.898;8.308;2022-12-08T03:42:43;99838.16;;;0.60;100.00
15634;BME280;14654;48.898;8.308;2022-12-08T03:45:09;99835.63;;;0.60;100.00
15634;BME280;14654;48.898;8.308;2022-12-08T03:47:35;99830.53;;;0.60;100.00
15634;BME280;14654;48.898;8.308;2022-12-08T03:50:00;99832.28;;;0.63;100.00
15634;BME280;14654;48.898;8.308;2022-12-08T03:52:26;99836.53;;;0.64;100.00
15634;BME280;14654;48.898;8.308;2022-12-08T03:54:51;99834.81;;;0.63;100.00
15634;BME280;14654;48.898;8.308;2022-12-08T03:57:16;99838.22;;;0.63;100.00
15634;BME280;14654;48.898;8.308;2022-12-08T03:59:41;99831.34;;;0.59;100.00
15634;BME280;14654;48.898;8.308;2022-12-08T04:02:07;99823.63;;;0.56;100.00
15634;BME280;14654;48.898;8.308;2022-12-08T04:04:32;99825.19;;;0.51;100.00
15634;BME280;14654;48.898;8.308;2022-12-08T04:06:58;99818.28;;;0.47;100.00
15634;BME280;14654;48.898;8.308;2022-12-08T04:09:23;99818.16;;;0.40;100.00
15634;BME280;14654;48.898;8.308;2022-12-08T04:11:48;99816.25;;;0.32;100.00
15634;BME280;14654;48.898;8.308;2022-12-08T04:14:14;99810.94;;;0.22;100.00
15634;BME280;14654;48.898;8.308;2022-12-08T04:16:39;99810.69;;;0.13;100.00
15634;BME280;14654;48.898;8.308;2022-12-08T04:19:05;99812.22;;;0.06;100.00
15634;BME280;14654;48.898;8.308;2022-12-08T04:21:30;99812.88;;;-0.01;100.00
15634;BME280;14654;48.898;8.308;2022-12-08T04:23:55;99802.50;;;-0.09;100.00
15634;BME280;14654;48.898;8.308;2022-12-08T04:26:21;99804.06;;;-0.14;100.00
15634;BME280;14654;48.898;8.308;2022-12-08T04:28:46;99810.75;;;-0.18;100.00
15634;BME280;14654;48.898;8.308;2022-12-08T04:31:12;99801.28;;;-0.23;100.00
15634;BME280;14654;48.898;8.308;2022-12-08T04:33:37;99805.38;;;-0.28;100.00
15634;BME280;14654;48.898;8.308;2022-12-08T04:36:04;99803.56;;;-0.33;100.00
15634;BME280;14654;48.898;8.308;2022-12-08T04:38:30;99804.25;;;-0.38;100.00
15634;BME280;14654;48.898;8.308;2022-12-08T04:40:55;99799.88;;;-0.44;100.00
15634;BME280;14654;48.898;8.308;2022-12-08T04:43:20;99801.47;;;-0.48;100.00
15634;BME280;14654;48.898;8.308;2022-12-08T04:45:46;99794.56;;;-0.52;100.00
15634;BME280;14654;48.898;8.308;2022-12-08T04:48:11;99794.53;;;-0.53;100.00
15634;BME280;14654;48.898;8.308;2022-12-08T04:50:42;99795.34;;;-0.54;100.00
15634;BME280;14654;48.898;8.308;2022-12-08T04:53:08;99797.81;;;-0.57;100.00
15634;BME280;14654;48.898;8.308;2022-12-08T04:55:37;99796.88;;;-0.59;100.00
15634;BME280;14654;48.898;8.308;2022-12-08T04:58:03;99787.50;;;-0.62;100.00
15634;BME280;14654;48.898;8.308;2022-12-08T05:00:28;99787.41;;;-0.65;100.00
15634;BME280;14654;48.898;8.308;2022-12-08T05:02:54;99789.88;;;-0.68;100.00
15634;BME280;14654;48.898;8.308;2022-12-08T05:05:19;99789.78;;;-0.71;100.00
15634;BME280;14654;48.898;8.308;2022-12-08T05:07:44;99788.84;;;-0.73;100.00
15634;BME280;14654;48.898;8.308;2022-12-08T05:10:10;99780.28;;;-0.77;100.00
15634;BME280;14654;48.898;8.308;2022-12-08T05:12:35;99792.97;;;-0.79;100.00
15634;BME280;14654;48.898;8.308;2022-12-08T05:15:00;99793.72;;;-0.81;100.00
15634;BME280;14654;48.898;8.308;2022-12-08T05:17:26;99795.38;;;-0.83;100.00
15634;BME280;14654;48.898;8.308;2022-12-08T05:19:51;99802.09;;;-0.85;100.00
15634;BME280;14654;48.898;8.308;2022-12-08T05:22:16;99802.84;;;-0.88;100.00
15634;BME280;14654;48.898;8.308;2022-12-08T05:24:42;99794.31;;;-0.90;100.00
15634;BME280;14654;48.898;8.308;2022-12-08T05:27:08;99800.25;;;-0.91;100.00
15634;BME280;14654;48.898;8.308;2022-12-08T05:29:34;99798.50;;;-0.92;100.00
15634;BME280;14654;48.898;8.308;2022-12-08T05:31:59;99798.50;;;-0.92;100.00
15634;BME280;14654;48.898;8.308;2022-12-08T05:34:24;99800.16;;;-0.93;100.00
15634;BME280;14654;48.898;8.308;2022-12-08T05:36:50;99794.19;;;-0.95;100.00
15634;BME280;14654;48.898;8.308;2022-12-08T05:39:15;99792.53;;;-0.94;100.00
15634;BME280;14654;48.898;8.308;2022-12-08T05:41:41;99792.53;;;-0.94;100.00
15634;BME280;14654;48.898;8.308;2022-12-08T05:44:06;99785.75;;;-0.94;100.00
15634;BME280;14654;48.898;8.308;2022-12-08T05:46:32;99790.78;;;-0.95;100.00
15634;BME280;14654;48.898;8.308;2022-12-08T05:48:59;99784.09;;;-0.93;100.00
15634;BME280;14654;48.898;8.308;2022-12-08T05:51:24;99781.56;;;-0.92;100.00
15634;BME280;14654;48.898;8.308;2022-12-08T05:53:51;99779.06;;;-0.90;100.00
15634;BME280;14654;48.898;8.308;2022-12-08T05:56:17;99784.16;;;-0.90;100.00
15634;BME280;14654;48.898;8.308;2022-12-08T05:58:43;99785.94;;;-0.87;100.00
15634;BME280;14654;48.898;8.308;2022-12-08T06:01:22;99781.69;;;-0.87;100.00
15634;BME280;14654;48.898;8.308;2022-12-08T06:03:51;99783.50;;;-0.84;100.00
15634;BME280;14654;48.898;8.308;2022-12-08T06:06:16;99785.34;;;-0.79;100.00
15634;BME280;14654;48.898;8.308;2022-12-08T06:08:41;99789.84;;;-0.70;100.00
15634;BME280;14654;48.898;8.308;2022-12-08T06:11:07;99787.50;;;-0.62;100.00
15634;BME280;14654;48.898;8.308;2022-12-08T06:13:32;99786.91;;;-0.53;100.00
15634;BME280;14654;48.898;8.308;2022-12-08T06:16:05;99776.91;;;-0.47;100.00
15634;BME280;14654;48.898;8.308;2022-12-08T06:18:31;99784.69;;;-0.41;100.00
15634;BME280;14654;48.898;8.308;2022-12-08T06:21:07;99784.00;;;-0.35;100.00
15634;BME280;14654;48.898;8.308;2022-12-08T06:23:33;99782.41;;;-0.32;100.00
15634;BME280;14654;48.898;8.308;2022-12-08T06:26:15;99784.25;;;-0.26;100.00
15634;BME280;14654;48.898;8.308;2022-12-08T06:28:41;99784.34;;;-0.21;100.00
15634;BME280;14654;48.898;8.308;2022-12-08T06:31:30;99783.63;;;-0.17;100.00
15634;BME280;14654;48.898;8.308;2022-12-08T06:33:54;99787.09;;;-0.13;100.00
15634;BME280;14654;48.898;8.308;2022-12-08T06:36:22;99790.59;;;-0.10;100.00
15634;BME280;14654;48.898;8.308;2022-12-08T06:38:48;99791.50;;;-0.08;100.00
15634;BME280;14654;48.898;8.308;2022-12-08T06:41:14;99787.38;;;-0.03;100.00
15634;BME280;14654;48.898;8.308;2022-12-08T06:43:39;99784.09;;;0.00;100.00
15634;BME280;14654;48.898;8.308;2022-12-08T06:46:08;99788.38;;;0.03;100.00
15634;BME280;14654;48.898;8.308;2022-12-08T06:48:34;99784.13;;;0.03;100.00
15634;BME280;14654;48.898;8.308;2022-12-08T06:51:13;99792.66;;;0.04;100.00
15634;BME280;14654;48.898;8.308;2022-12-08T06:53:39;99790.03;;;0.02;100.00
15634;BME280;14654;48.898;8.308;2022-12-08T06:56:06;99801.91;;;0.00;100.00
15634;BME280;14654;48.898;8.308;2022-12-08T06:58:31;99796.75;;;-0.02;100.00
15634;BME280;14654;48.898;8.308;2022-12-08T07:00:57;99804.34;;;-0.03;100.00
15634;BME280;14654;48.898;8.308;2022-12-08T07:03:27;99807.75;;;-0.03;100.00
15634;BME280;14654;48.898;8.308;2022-12-08T07:05:55;99801.00;;;-0.01;100.00
15634;BME280;14654;48.898;8.308;2022-12-08T07:08:20;99794.38;;;0.05;100.00
15634;BME280;14654;48.898;8.308;2022-12-08T07:10:46;99793.59;;;0.09;100.00
15634;BME280;14654;48.898;8.308;2022-12-08T07:13:11;99795.41;;;0.13;100.00
15634;BME280;14654;48.898;8.308;2022-12-08T07:15:36;99790.38;;;0.14;100.00
15634;BME280;14654;48.898;8.308;2022-12-08T07:18:02;99791.31;;;0.18;100.00
15634;BME280;14654;48.898;8.308;2022-12-08T07:20:27;99802.59;;;0.28;100.00
15634;BME280;14654;48.898;8.308;2022-12-08T07:22:53;99796.78;;;0.34;100.00
15634;BME280;14654;48.898;8.308;2022-12-08T07:25:18;99802.06;;;0.41;100.00
15634;BME280;14654;48.898;8.308;2022-12-08T07:27:44;99803.97;;;0.50;100.00
15634;BME280;14654;48.898;8.308;2022-12-08T07:30:10;99801.56;;;0.56;100.00
15634;BME280;14654;48.898;8.308;2022-12-08T07:32:37;99806.88;;;0.66;100.00
15634;BME280;14654;48.898;8.308;2022-12-08T07:35:03;99806.16;;;0.71;100.00
15634;BME280;14654;48.898;8.308;2022-12-08T07:37:29;99805.44;;;0.77;100.00
15634;BME280;14654;48.898;8.308;2022-12-08T07:39:54;99808.97;;;0.82;100.00
15634;BME280;14654;48.898;8.308;2022-12-08T07:42:19;99796.28;;;0.85;100.00
15634;BME280;14654;48.898;8.308;2022-12-08T07:44:45;99793.81;;;0.88;100.00
15634;BME280;14654;48.898;8.308;2022-12-08T07:47:10;99796.44;;;0.91;100.00
15634;BME280;14654;48.898;8.308;2022-12-08T07:49:35;99796.44;;;0.93;100.00
15634;BME280;14654;48.898;8.308;2022-12-08T07:52:01;99795.69;;;0.97;100.00
15634;BME280;14654;48.898;8.308;2022-12-08T07:54:26;99791.53;;;1.01;100.00
15634;BME280;14654;48.898;8.308;2022-12-08T07:56:52;99789.03;;;1.04;100.00
15634;BME280;14654;48.898;8.308;2022-12-08T07:59:18;99791.66;;;1.05;100.00
15634;BME280;14654;48.898;8.308;2022-12-08T08:01:43;99778.91;;;1.05;100.00
15634;BME280;14654;48.898;8.308;2022-12-08T08:04:09;99782.28;;;1.06;100.00
15634;BME280;14654;48.898;8.308;2022-12-08T08:06:35;99775.50;;;1.06;100.00
15634;BME280;14654;48.898;8.308;2022-12-08T08:09:02;99773.81;;;1.07;100.00
15634;BME280;14654;48.898;8.308;2022-12-08T08:11:28;99772.13;;;1.08;100.00
15634;BME280;14654;48.898;8.308;2022-12-08T08:13:55;99767.06;;;1.09;100.00
15634;BME280;14654;48.898;8.308;2022-12-08T08:16:21;99771.38;;;1.12;100.00
15634;BME280;14654;48.898;8.308;2022-12-08T08:18:48;99765.47;;;1.14;100.00
15634;BME280;14654;48.898;8.308;2022-12-08T08:21:13;99762.16;;;1.18;100.00
15634;BME280;14654;48.898;8.308;2022-12-08T08:23:39;99765.63;;;1.22;100.00
15634;BME280;14654;48.898;8.308;2022-12-08T08:26:04;99766.59;;;1.27;100.00
15634;BME280;14654;48.898;8.308;2022-12-08T08:28:30;99771.78;;;1.32;100.00
15634;BME280;14654;48.898;8.308;2022-12-08T08:30:55;99766.81;;;1.38;100.00
15634;BME280;14654;48.898;8.308;2022-12-08T08:33:21;99770.34;;;1.45;100.00
15634;BME280;14654;48.898;8.308;2022-12-08T08:35:46;99763.59;;;1.48;100.00
15634;BME280;14654;48.898;8.308;2022-12-08T08:38:11;99766.28;;;1.55;100.00
15634;BME280;14654;48.898;8.308;2022-12-08T08:40:37;99768.09;;;1.62;100.00
15634;BME280;14654;48.898;8.308;2022-12-08T08:43:03;99762.25;;;1.67;100.00
15634;BME280;14654;48.898;8.308;2022-12-08T08:45:29;99764.09;;;1.73;100.00
15634;BME280;14654;48.898;8.308;2022-12-08T08:47:55;99772.72;;;1.80;100.00
15634;BME280;14654;48.898;8.308;2022-12-08T08:50:20;99766.81;;;1.84;100.00
15634;BME280;14654;48.898;8.308;2022-12-08T08:52:45;99769.50;;;1.90;100.00
15634;BME280;14654;48.898;8.308;2022-12-08T08:55:11;99760.25;;;1.97;100.00
15634;BME280;14654;48.898;8.308;2022-12-08T08:57:36;99758.66;;;2.05;100.00
15634;BME280;14654;48.898;8.308;2022-12-08T09:00:04;99762.19;;;2.12;100.00
15634;BME280;14654;48.898;8.308;2022-12-08T09:02:29;99755.53;;;2.20;100.00
15634;BME280;14654;48.898;8.308;2022-12-08T09:04:55;99755.66;;;2.29;100.00
15634;BME280;14654;48.898;8.308;2022-12-08T09:07:20;99761.72;;;2.36;100.00
15634;BME280;14654;48.898;8.308;2022-12-08T09:09:46;99755.03;;;2.43;100.00
15634;BME280;14654;48.898;8.308;2022-12-08T09:12:11;99750.03;;;2.51;100.00
15634;BME280;14654;48.898;8.308;2022-12-08T09:14:37;99751.91;;;2.61;100.00
15634;BME280;14654;48.898;8.308;2022-12-08T09:17:03;99752.84;;;2.68;100.00
15634;BME280;14654;48.898;8.308;2022-12-08T09:19:28;99746.09;;;2.71;100.00
15634;BME280;14654;48.898;8.308;2022-12-08T09:21:54;99748.75;;;2.78;100.00
15634;BME280;14654;48.898;8.308;2022-12-08T09:24:19;99756.53;;;2.87;100.00
15634;BME280;14654;48.898;8.308;2022-12-08T09:26:44;99745.56;;;2.96;100.00
15634;BME280;14654;48.898;8.308;2022-12-08T09:29:11;99746.53;;;3.04;100.00
15634;BME280;14654;48.898;8.308;2022-12-08T09:31:37;99753.44;;;3.13;100.00
15634;BME280;14654;48.898;8.308;2022-12-08T09:34:03;99745.91;;;3.22;100.00
15634;BME280;14654;48.898;8.308;2022-12-08T09:36:29;99750.28;;;3.32;100.00
15634;BME280;14654;48.898;8.308;2022-12-08T09:38:55;99748.66;;;3.41;100.00
15634;BME280;14654;48.898;8.308;2022-12-08T09:41:36;99747.06;;;3.50;100.00
15634;BME280;14654;48.898;8.308;2022-12-08T09:46:51;99743.91;;;3.73;100.00
15634;BME280;14654;48.898;8.308;2022-12-08T09:49:19;99740.63;;;3.87;100.00
15634;BME280;14654;48.898;8.308;2022-12-08T09:51:46;99735.66;;;4.01;100.00
15634;BME280;14654;48.898;8.308;2022-12-08T09:54:21;99730.63;;;4.13;100.00
15634;BME280;14654;48.898;8.308;2022-12-08T09:56:50;99731.56;;;4.26;100.00
15634;BME280;14654;48.898;8.308;2022-12-08T09:59:29;99719.72;;;4.39;100.00
15634;BME280;14654;48.898;8.308;2022-12-08T10:01:55;99724.94;;;4.53;100.00
15634;BME280;14654;48.898;8.308;2022-12-08T10:04:35;99713.09;;;4.73;100.00
15634;BME280;14654;48.898;8.308;2022-12-08T10:07:21;99711.47;;;4.93;100.00
15634;BME280;14654;48.898;8.308;2022-12-08T10:10:13;99711.59;;;5.13;100.00
15634;BME280;14654;48.898;8.308;2022-12-08T10:12:46;99701.41;;;5.33;100.00
15634;BME280;14654;48.898;8.308;2022-12-08T10:18:09;99691.22;;;5.67;100.00
15634;BME280;14654;48.898;8.308;2022-12-08T10:20:39;99689.50;;;5.82;100.00
15634;BME280;14654;48.898;8.308;2022-12-08T10:23:17;99686.94;;;5.97;100.00
15634;BME280;14654;48.898;8.308;2022-12-08T10:25:48;99680.13;;;6.08;100.00
15634;BME280;14654;48.898;8.308;2022-12-08T10:28:14;99674.97;;;6.18;100.00
15634;BME280;14654;48.898;8.308;2022-12-08T10:30:40;99676.69;;;6.25;100.00
15634;BME280;14654;48.898;8.308;2022-12-08T10:33:11;99685.25;;;6.27;100.00
15634;BME280;14654;48.898;8.308;2022-12-08T10:38:25;99677.56;;;6.13;100.00
15634;BME280;14654;48.898;8.308;2022-12-08T10:40:52;99674.16;;;6.05;100.00
15634;BME280;14654;48.898;8.308;2022-12-08T10:43:24;99666.41;;;6.00;100.00
15634;BME280;14654;48.898;8.308;2022-12-08T10:45:51;99668.97;;;5.99;100.00
15634;BME280;14654;48.898;8.308;2022-12-08T10:48:28;99668.97;;;5.97;100.00
15634;BME280;14654;48.898;8.308;2022-12-08T10:50:58;99655.25;;;5.93;100.00
15634;BME280;14654;48.898;8.308;2022-12-08T10:53:27;99664.66;;;5.91;100.00
15634;BME280;14654;48.898;8.308;2022-12-08T10:58:28;99652.69;;;5.97;100.00
15634;BME280;14654;48.898;8.308;2022-12-08T11:00:57;99656.13;;;5.95;100.00
15634;BME280;14654;48.898;8.308;2022-12-08T11:06:24;99647.56;;;5.79;100.00
15634;BME280;14654;48.898;8.308;2022-12-08T11:09:21;99640.72;;;5.75;100.00
15634;BME280;14654;48.898;8.308;2022-12-08T11:11:48;99644.16;;;5.73;100.00
15634;BME280;14654;48.898;8.308;2022-12-08T11:17:27;99635.56;;;5.58;100.00
15634;BME280;14654;48.898;8.308;2022-12-08T11:22:42;99627.00;;;5.61;100.00
15634;BME280;14654;48.898;8.308;2022-12-08T11:27:39;99627.88;;;5.63;100.00
15634;BME280;14654;48.898;8.308;2022-12-08T11:30:20;99626.16;;;5.65;100.00
15634;BME280;14654;48.898;8.308;2022-12-08T11:32:48;99628.72;;;5.67;100.00
15634;BME280;14654;48.898;8.308;2022-12-08T11:35:27;99618.47;;;5.67;100.00
15634;BME280;14654;48.898;8.308;2022-12-08T11:37:57;99617.59;;;5.63;100.00
15634;BME280;14654;48.898;8.308;2022-12-08T11:40:37;99618.44;;;5.56;100.00
15634;BME280;14654;48.898;8.308;2022-12-08T11:43:11;99615.91;;;5.57;100.00
15634;BME280;14654;48.898;8.308;2022-12-08T11:45:40;99622.72;;;5.60;100.00
15634;BME280;14654;48.898;8.308;2022-12-08T11:48:09;99605.63;;;5.67;100.00
15634;BME280;14654;48.898;8.308;2022-12-08T11:51:02;99609.03;;;5.75;100.00
15634;BME280;14654;48.898;8.308;2022-12-08T11:53:37;99604.75;;;5.72;100.00
15634;BME280;14654;48.898;8.308;2022-12-08T11:56:12;99597.06;;;5.69;100.00
15634;BME280;14654;48.898;8.308;2022-12-08T11:58:56;99599.66;;;5.66;100.00
15634;BME280;14654;48.898;8.308;2022-12-08T12:01:25;99591.94;;;5.60;100.00
15634;BME280;14654;48.898;8.308;2022-12-08T12:17:52;99582.44;;;6.43;97.98
15634;BME280;14654;48.898;8.308;2022-12-08T12:20:20;99584.06;;;6.59;97.39
15634;BME280;14654;48.898;8.308;2022-12-08T12:22:55;99576.28;;;6.70;96.57
15634;BME280;14654;48.898;8.308;2022-12-08T12:25:24;99580.59;;;6.68;95.48
15634;BME280;14654;48.898;8.308;2022-12-08T12:27:52;99574.66;;;6.56;95.23
15634;BME280;14654;48.898;8.308;2022-12-08T12:30:26;99581.53;;;6.47;95.28
15634;BME280;14654;48.898;8.308;2022-12-08T12:32:56;99573.84;;;6.39;95.26
15634;BME280;14654;48.898;8.308;2022-12-08T12:38:22;99571.34;;;6.16;94.98
15634;BME280;14654;48.898;8.308;2022-12-08T12:41:12;99566.25;;;6.03;94.69
15634;BME280;14654;48.898;8.308;2022-12-08T12:43:38;99564.53;;;5.96;94.73
15634;BME280;14654;48.898;8.308;2022-12-08T12:48:50;99564.53;;;5.85;95.44
15634;BME280;14654;48.898;8.308;2022-12-08T12:51:44;99555.13;;;5.84;95.44
15634;BME280;14654;48.898;8.308;2022-12-08T12:54:24;99548.25;;;5.85;95.11
15634;BME280;14654;48.898;8.308;2022-12-08T13:02:21;99548.25;;;6.08;94.29
15634;BME280;14654;48.898;8.308;2022-12-08T13:05:27;99552.50;;;6.20;94.16
15634;BME280;14654;48.898;8.308;2022-12-08T13:08:14;99547.31;;;6.29;93.91
15634;BME280;14654;48.898;8.308;2022-12-08T13:10:55;99548.19;;;6.31;93.04
15634;BME280;14654;48.898;8.308;2022-12-08T13:13:23;99548.19;;;6.27;93.06
15634;BME280;14654;48.898;8.308;2022-12-08T13:18:22;99545.66;;;6.19;93.04
15634;BME280;14654;48.898;8.308;2022-12-08T13:26:24;99552.53;;;5.93;93.61
15634;BME280;14654;48.898;8.308;2022-12-08T13:34:00;99545.72;;;5.72;94.23
15634;BME280;14654;48.898;8.308;2022-12-08T13:36:34;99544.84;;;5.70;94.59
15634;BME280;14654;48.898;8.308;2022-12-08T13:39:03;99542.28;;;5.65;94.84
15634;BME280;14654;48.898;8.308;2022-12-08T13:41:41;99545.75;;;5.58;94.81
15634;BME280;14654;48.898;8.308;2022-12-08T13:44:30;99538.03;;;5.52;95.22
15634;BME280;14654;48.898;8.308;2022-12-08T13:46:59;99534.63;;;5.48;94.79
15634;BME280;14654;48.898;8.308;2022-12-08T13:49:33;99544.88;;;5.44;94.71
15634;BME280;14654;48.898;8.308;2022-12-08T13:52:00;99536.31;;;5.40;94.88
15634;BME280;14654;48.898;8.308;2022-12-08T13:54:34;99538.88;;;5.37;95.10
15634;BME280;14654;48.898;8.308;2022-12-08T13:57:02;99542.31;;;5.33;95.19
15634;BME280;14654;48.898;8.308;2022-12-08T13:59:31;99537.16;;;5.27;95.28
15634;BME280;14654;48.898;8.308;2022-12-08T14:02:03;99543.13;;;5.23;95.71
15634;BME280;14654;48.898;8.308;2022-12-08T14:04:30;99538.03;;;5.19;95.91
15634;BME280;14654;48.898;8.308;2022-12-08T14:06:58;99536.31;;;5.18;96.30
15634;BME280;14654;48.898;8.308;2022-12-08T14:09:32;99532.03;;;5.16;96.50
15634;BME280;14654;48.898;8.308;2022-12-08T14:12:05;99526.03;;;5.09;96.73
15634;BME280;14654;48.898;8.308;2022-12-08T14:17:05;99532.88;;;5.04;97.31
15634;BME280;14654;48.898;8.308;2022-12-08T14:19:33;99526.03;;;5.00;97.20
15634;BME280;14654;48.898;8.308;2022-12-08T14:24:28;99537.97;;;4.92;97.71
15634;BME280;14654;48.898;8.308;2022-12-08T14:26:57;99534.53;;;4.85;97.92
15634;BME280;14654;48.898;8.308;2022-12-08T14:29:40;99533.69;;;4.81;97.99
15634;BME280;14654;48.898;8.308;2022-12-08T14:34:51;99541.34;;;4.69;98.44
15634;BME280;14654;48.898;8.308;2022-12-08T14:37:18;99540.47;;;4.65;98.69
15634;BME280;14654;48.898;8.308;2022-12-08T14:39:44;99542.16;;;4.62;98.91
15634;BME280;14654;48.898;8.308;2022-12-08T14:42:23;99532.75;;;4.59;99.09
15634;BME280;14654;48.898;8.308;2022-12-08T14:45:02;99531.91;;;4.55;99.19